sensor_id;sensor_type;location;lat;lon;timestamp;P1;durP1;ratioP1;P2;durP2;ratioP2
26756;SDS011;23848;49.798;10.228;2022-12-07T00:02:17;9.93;;;7.28;;
26756;SDS011;23848;49.798;10.228;2022-12-07T00:04:56;10.43;;;7.00;;
26756;SDS011;23848;49.798;10.228;2022-12-07T00:07:25;10.00;;;6.55;;
26756;SDS011;23848;49.798;10.228;2022-12-07T00:09:53;8.80;;;6.78;;
26756;SDS011;23848;49.798;10.228;2022-12-07T00:12:22;9.88;;;7.20;;
26756;SDS011;23848;49.798;10.228;2022-12-07T00:14:52;11.57;;;7.85;;
26756;SDS011;23848;49.798;10.228;2022-12-07T00:17:20;10.43;;;7.53;;
26756;SDS011;23848;49.798;10.228;2022-12-07T00:19:48;9.95;;;6.70;;
26756;SDS011;23848;49.798;10.228;2022-12-07T00:22:17;9.45;;;6.65;;
26756;SDS011;23848;49.798;10.228;2022-12-07T00:24:45;11.77;;;7.47;;
26756;SDS011;23848;49.798;10.228;2022-12-07T00:27:14;10.90;;;7.25;;
26756;SDS011;23848;49.798;10.228;2022-12-07T00:29:42;12.95;;;7.53;;
26756;SDS011;23848;49.798;10.228;2022-12-07T00:32:12;12.18;;;7.50;;
26756;SDS011;23848;49.798;10.228;2022-12-07T00:34:41;11.30;;;7.45;;
26756;SDS011;23848;49.798;10.228;2022-12-07T00:37:09;10.73;;;7.32;;
26756;SDS011;23848;49.798;10.228;2022-12-07T00:39:39;9.75;;;6.65;;
26756;SDS011;23848;49.798;10.228;2022-12-07T00:42:07;12.02;;;7.93;;
26756;SDS011;23848;49.798;10.228;2022-12-07T00:44:36;11.50;;;7.93;;
26756;SDS011;23848;49.798;10.228;2022-12-07T00:47:05;11.63;;;7.53;;
26756;SDS011;23848;49.798;10.228;2022-12-07T00:49:38;11.95;;;7.93;;
26756;SDS011;23848;49.798;10.228;2022-12-07T00:52:06;9.90;;;7.75;;
26756;SDS011;23848;49.798;10.228;2022-12-07T00:54:34;14.90;;;8.55;;
26756;SDS011;23848;49.798;10.228;2022-12-07T00:57:03;16.08;;;8.23;;
26756;SDS011;23848;49.798;10.228;2022-12-07T00:59:31;10.45;;;7.70;;
26756;SDS011;23848;49.798;10.228;2022-12-07T01:02:01;12.80;;;8.05;;
26756;SDS011;23848;49.798;10.228;2022-12-07T01:04:29;12.52;;;7.78;;
26756;SDS011;23848;49.798;10.228;2022-12-07T01:06:59;13.40;;;7.38;;
26756;SDS011;23848;49.798;10.228;2022-12-07T01:09:28;13.07;;;8.60;;
26756;SDS011;23848;49.798;10.228;2022-12-07T01:11:57;11.93;;;8.20;;
26756;SDS011;23848;49.798;10.228;2022-12-07T01:14:25;11.27;;;7.97;;
26756;SDS011;23848;49.798;10.228;2022-12-07T01:16:54;13.00;;;8.02;;
26756;SDS011;23848;49.798;10.228;2022-12-07T01:19:23;9.95;;;7.10;;
26756;SDS011;23848;49.798;10.228;2022-12-07T01:21:51;10.90;;;7.43;;
26756;SDS011;23848;49.798;10.228;2022-12-07T01:24:22;13.63;;;8.10;;
26756;SDS011;23848;49.798;10.228;2022-12-07T01:26:51;11.10;;;7.72;;
26756;SDS011;23848;49.798;10.228;2022-12-07T01:29:19;13.57;;;8.38;;
26756;SDS011;23848;49.798;10.228;2022-12-07T01:31:48;12.60;;;7.72;;
26756;SDS011;23848;49.798;10.228;2022-12-07T01:34:17;11.93;;;8.02;;
26756;SDS011;23848;49.798;10.228;2022-12-07T01:36:46;11.80;;;8.00;;
26756;SDS011;23848;49.798;10.228;2022-12-07T01:39:14;15.65;;;8.65;;
26756;SDS011;23848;49.798;10.228;2022-12-07T01:41:44;13.60;;;8.77;;
26756;SDS011;23848;49.798;10.228;2022-12-07T01:44:15;12.80;;;8.38;;
26756;SDS011;23848;49.798;10.228;2022-12-07T01:46:49;14.95;;;8.88;;
26756;SDS011;23848;49.798;10.228;2022-12-07T01:49:22;13.75;;;8.73;;
26756;SDS011;23848;49.798;10.228;2022-12-07T01:51:52;12.70;;;8.15;;
26756;SDS011;23848;49.798;10.228;2022-12-07T01:54:22;14.82;;;8.25;;
26756;SDS011;23848;49.798;10.228;2022-12-07T01:56:53;12.98;;;7.95;;
26756;SDS011;23848;49.798;10.228;2022-12-07T01:59:23;13.25;;;8.73;;
26756;SDS011;23848;49.798;10.228;2022-12-07T02:01:52;15.07;;;8.38;;
26756;SDS011;23848;49.798;10.228;2022-12-07T02:04:21;14.38;;;8.40;;
26756;SDS011;23848;49.798;10.228;2022-12-07T02:06:51;15.57;;;8.50;;
26756;SDS011;23848;49.798;10.228;2022-12-07T02:09:20;11.23;;;7.47;;
26756;SDS011;23848;49.798;10.228;2022-12-07T02:11:48;12.23;;;8.35;;
26756;SDS011;23848;49.798;10.228;2022-12-07T02:14:19;13.55;;;8.20;;
26756;SDS011;23848;49.798;10.228;2022-12-07T02:16:51;13.75;;;8.38;;
26756;SDS011;23848;49.798;10.228;2022-12-07T02:19:30;13.63;;;9.02;;
26756;SDS011;23848;49.798;10.228;2022-12-07T02:24:42;13.60;;;8.38;;
26756;SDS011;23848;49.798;10.228;2022-12-07T02:27:19;14.65;;;8.63;;
26756;SDS011;23848;49.798;10.228;2022-12-07T02:29:55;14.48;;;8.52;;
26756;SDS011;23848;49.798;10.228;2022-12-07T02:32:28;14.52;;;9.07;;
26756;SDS011;23848;49.798;10.228;2022-12-07T02:35:01;13.90;;;8.25;;
26756;SDS011;23848;49.798;10.228;2022-12-07T02:37:34;13.27;;;8.63;;
26756;SDS011;23848;49.798;10.228;2022-12-07T02:40:06;13.73;;;8.38;;
26756;SDS011;23848;49.798;10.228;2022-12-07T02:42:36;13.02;;;8.32;;
26756;SDS011;23848;49.798;10.228;2022-12-07T02:45:09;12.18;;;8.63;;
26756;SDS011;23848;49.798;10.228;2022-12-07T02:47:38;14.15;;;7.88;;
26756;SDS011;23848;49.798;10.228;2022-12-07T02:50:08;12.82;;;7.60;;
26756;SDS011;23848;49.798;10.228;2022-12-07T02:52:37;12.10;;;7.97;;
26756;SDS011;23848;49.798;10.228;2022-12-07T02:55:06;12.80;;;8.15;;
26756;SDS011;23848;49.798;10.228;2022-12-07T02:57:39;14.10;;;9.13;;
26756;SDS011;23848;49.798;10.228;2022-12-07T03:00:12;14.73;;;8.20;;
26756;SDS011;23848;49.798;10.228;2022-12-07T03:02:46;15.15;;;9.20;;
26756;SDS011;23848;49.798;10.228;2022-12-07T03:05:20;14.77;;;8.20;;
26756;SDS011;23848;49.798;10.228;2022-12-07T03:07:57;12.88;;;8.30;;
26756;SDS011;23848;49.798;10.228;2022-12-07T03:10:32;12.63;;;7.90;;
26756;SDS011;23848;49.798;10.228;2022-12-07T03:13:04;11.70;;;8.80;;
26756;SDS011;23848;49.798;10.228;2022-12-07T03:15:39;14.07;;;8.43;;
26756;SDS011;23848;49.798;10.228;2022-12-07T03:18:12;14.55;;;9.32;;
26756;SDS011;23848;49.798;10.228;2022-12-07T03:20:41;14.13;;;8.70;;
26756;SDS011;23848;49.798;10.228;2022-12-07T03:23:12;14.57;;;9.25;;
26756;SDS011;23848;49.798;10.228;2022-12-07T03:25:41;14.55;;;9.07;;
26756;SDS011;23848;49.798;10.228;2022-12-07T03:28:11;14.98;;;9.05;;
26756;SDS011;23848;49.798;10.228;2022-12-07T03:30:44;17.52;;;9.73;;
26756;SDS011;23848;49.798;10.228;2022-12-07T03:33:15;16.03;;;8.87;;
26756;SDS011;23848;49.798;10.228;2022-12-07T03:35:47;15.40;;;9.30;;
26756;SDS011;23848;49.798;10.228;2022-12-07T03:38:17;14.48;;;9.13;;
26756;SDS011;23848;49.798;10.228;2022-12-07T03:40:49;16.20;;;8.75;;
26756;SDS011;23848;49.798;10.228;2022-12-07T03:43:18;17.63;;;9.65;;
26756;SDS011;23848;49.798;10.228;2022-12-07T03:45:51;16.25;;;9.77;;
26756;SDS011;23848;49.798;10.228;2022-12-07T03:48:22;15.60;;;9.18;;
26756;SDS011;23848;49.798;10.228;2022-12-07T03:50:52;17.85;;;9.98;;
26756;SDS011;23848;49.798;10.228;2022-12-07T03:53:23;17.30;;;10.32;;
26756;SDS011;23848;49.798;10.228;2022-12-07T03:55:53;15.23;;;8.82;;
26756;SDS011;23848;49.798;10.228;2022-12-07T03:58:22;17.08;;;9.50;;
26756;SDS011;23848;49.798;10.228;2022-12-07T04:00:52;13.82;;;9.13;;
26756;SDS011;23848;49.798;10.228;2022-12-07T04:03:21;16.85;;;10.32;;
26756;SDS011;23848;49.798;10.228;2022-12-07T04:05:50;15.20;;;9.32;;
26756;SDS011;23848;49.798;10.228;2022-12-07T04:08:18;18.48;;;10.55;;
26756;SDS011;23848;49.798;10.228;2022-12-07T04:10:47;16.88;;;9.32;;
26756;SDS011;23848;49.798;10.228;2022-12-07T04:13:16;15.70;;;9.90;;
26756;SDS011;23848;49.798;10.228;2022-12-07T04:15:44;18.80;;;10.32;;
26756;SDS011;23848;49.798;10.228;2022-12-07T04:18:14;16.20;;;9.73;;
26756;SDS011;23848;49.798;10.228;2022-12-07T04:20:43;18.55;;;10.35;;
26756;SDS011;23848;49.798;10.228;2022-12-07T04:23:11;16.55;;;10.27;;
26756;SDS011;23848;49.798;10.228;2022-12-07T04:25:40;17.77;;;10.75;;
26756;SDS011;23848;49.798;10.228;2022-12-07T04:28:08;17.63;;;10.27;;
26756;SDS011;23848;49.798;10.228;2022-12-07T04:30:37;16.67;;;10.52;;
26756;SDS011;23848;49.798;10.228;2022-12-07T04:33:06;19.40;;;11.00;;
26756;SDS011;23848;49.798;10.228;2022-12-07T04:35:36;16.45;;;9.65;;
26756;SDS011;23848;49.798;10.228;2022-12-07T04:38:04;18.05;;;10.32;;
26756;SDS011;23848;49.798;10.228;2022-12-07T04:40:33;17.08;;;10.20;;
26756;SDS011;23848;49.798;10.228;2022-12-07T04:43:02;18.60;;;9.90;;
26756;SDS011;23848;49.798;10.228;2022-12-07T04:45:31;18.98;;;10.15;;
26756;SDS011;23848;49.798;10.228;2022-12-07T04:47:59;17.85;;;10.40;;
26756;SDS011;23848;49.798;10.228;2022-12-07T04:50:28;17.92;;;9.98;;
26756;SDS011;23848;49.798;10.228;2022-12-07T04:52:57;16.67;;;9.20;;
26756;SDS011;23848;49.798;10.228;2022-12-07T04:55:26;17.17;;;10.13;;
26756;SDS011;23848;49.798;10.228;2022-12-07T04:57:55;17.13;;;10.43;;
26756;SDS011;23848;49.798;10.228;2022-12-07T05:00:23;16.33;;;10.10;;
26756;SDS011;23848;49.798;10.228;2022-12-07T05:02:52;15.60;;;9.65;;
26756;SDS011;23848;49.798;10.228;2022-12-07T05:05:21;17.35;;;9.80;;
26756;SDS011;23848;49.798;10.228;2022-12-07T05:07:50;15.88;;;9.05;;
26756;SDS011;23848;49.798;10.228;2022-12-07T05:10:20;17.83;;;9.95;;
26756;SDS011;23848;49.798;10.228;2022-12-07T05:12:49;17.17;;;9.70;;
26756;SDS011;23848;49.798;10.228;2022-12-07T05:15:17;14.70;;;9.32;;
26756;SDS011;23848;49.798;10.228;2022-12-07T05:17:46;18.40;;;10.30;;
26756;SDS011;23848;49.798;10.228;2022-12-07T05:20:14;16.08;;;9.70;;
26756;SDS011;23848;49.798;10.228;2022-12-07T05:22:43;15.35;;;9.77;;
26756;SDS011;23848;49.798;10.228;2022-12-07T05:25:11;15.73;;;9.38;;
26756;SDS011;23848;49.798;10.228;2022-12-07T05:27:41;16.35;;;10.05;;
26756;SDS011;23848;49.798;10.228;2022-12-07T05:30:10;14.75;;;9.13;;
26756;SDS011;23848;49.798;10.228;2022-12-07T05:32:39;15.52;;;9.43;;
26756;SDS011;23848;49.798;10.228;2022-12-07T05:35:10;14.45;;;8.90;;
26756;SDS011;23848;49.798;10.228;2022-12-07T05:37:38;15.95;;;9.38;;
26756;SDS011;23848;49.798;10.228;2022-12-07T05:40:07;14.50;;;8.98;;
26756;SDS011;23848;49.798;10.228;2022-12-07T05:42:36;16.65;;;9.50;;
26756;SDS011;23848;49.798;10.228;2022-12-07T05:45:06;14.38;;;8.80;;
26756;SDS011;23848;49.798;10.228;2022-12-07T05:47:35;14.25;;;8.65;;
26756;SDS011;23848;49.798;10.228;2022-12-07T05:50:05;13.88;;;8.40;;
26756;SDS011;23848;49.798;10.228;2022-12-07T05:52:33;15.88;;;9.70;;
26756;SDS011;23848;49.798;10.228;2022-12-07T05:55:02;15.68;;;9.95;;
26756;SDS011;23848;49.798;10.228;2022-12-07T05:57:30;16.85;;;10.63;;
26756;SDS011;23848;49.798;10.228;2022-12-07T05:59:59;14.55;;;9.35;;
26756;SDS011;23848;49.798;10.228;2022-12-07T06:02:28;14.30;;;8.27;;
26756;SDS011;23848;49.798;10.228;2022-12-07T06:04:57;16.33;;;9.73;;
26756;SDS011;23848;49.798;10.228;2022-12-07T06:07:25;16.15;;;9.82;;
26756;SDS011;23848;49.798;10.228;2022-12-07T06:09:54;15.88;;;9.00;;
26756;SDS011;23848;49.798;10.228;2022-12-07T06:12:22;15.70;;;9.32;;
26756;SDS011;23848;49.798;10.228;2022-12-07T06:15:04;13.88;;;8.52;;
26756;SDS011;23848;49.798;10.228;2022-12-07T06:17:35;15.10;;;8.85;;
26756;SDS011;23848;49.798;10.228;2022-12-07T06:20:04;14.48;;;9.07;;
26756;SDS011;23848;49.798;10.228;2022-12-07T06:22:33;15.85;;;9.55;;
26756;SDS011;23848;49.798;10.228;2022-12-07T06:25:01;15.32;;;9.40;;
26756;SDS011;23848;49.798;10.228;2022-12-07T06:27:34;14.15;;;8.40;;
26756;SDS011;23848;49.798;10.228;2022-12-07T06:30:03;14.50;;;8.82;;
26756;SDS011;23848;49.798;10.228;2022-12-07T06:32:37;14.13;;;8.32;;
26756;SDS011;23848;49.798;10.228;2022-12-07T06:35:07;13.70;;;8.75;;
26756;SDS011;23848;49.798;10.228;2022-12-07T06:37:35;15.10;;;8.75;;
26756;SDS011;23848;49.798;10.228;2022-12-07T06:40:05;14.90;;;8.90;;
26756;SDS011;23848;49.798;10.228;2022-12-07T06:42:34;14.43;;;8.55;;
26756;SDS011;23848;49.798;10.228;2022-12-07T06:45:03;16.17;;;8.68;;
26756;SDS011;23848;49.798;10.228;2022-12-07T06:47:32;15.88;;;8.77;;
26756;SDS011;23848;49.798;10.228;2022-12-07T06:50:12;16.05;;;9.20;;
26756;SDS011;23848;49.798;10.228;2022-12-07T06:52:40;12.65;;;7.88;;
26756;SDS011;23848;49.798;10.228;2022-12-07T06:55:09;13.98;;;8.27;;
26756;SDS011;23848;49.798;10.228;2022-12-07T06:57:38;15.27;;;8.77;;
26756;SDS011;23848;49.798;10.228;2022-12-07T07:00:07;13.93;;;8.40;;
26756;SDS011;23848;49.798;10.228;2022-12-07T07:02:35;15.23;;;9.05;;
26756;SDS011;23848;49.798;10.228;2022-12-07T07:05:04;16.58;;;9.05;;
26756;SDS011;23848;49.798;10.228;2022-12-07T07:07:34;13.43;;;8.88;;
26756;SDS011;23848;49.798;10.228;2022-12-07T07:10:23;19.75;;;9.13;;
26756;SDS011;23848;49.798;10.228;2022-12-07T07:12:52;17.08;;;9.77;;
26756;SDS011;23848;49.798;10.228;2022-12-07T07:15:23;17.63;;;9.52;;
26756;SDS011;23848;49.798;10.228;2022-12-07T07:17:51;14.15;;;8.73;;
26756;SDS011;23848;49.798;10.228;2022-12-07T07:20:20;17.48;;;8.40;;
26756;SDS011;23848;49.798;10.228;2022-12-07T07:22:50;17.58;;;9.40;;
26756;SDS011;23848;49.798;10.228;2022-12-07T07:25:19;16.00;;;8.60;;
26756;SDS011;23848;49.798;10.228;2022-12-07T07:27:47;15.63;;;8.25;;
26756;SDS011;23848;49.798;10.228;2022-12-07T07:30:16;16.58;;;9.10;;
26756;SDS011;23848;49.798;10.228;2022-12-07T07:32:45;15.23;;;9.88;;
26756;SDS011;23848;49.798;10.228;2022-12-07T07:35:14;16.80;;;9.75;;
26756;SDS011;23848;49.798;10.228;2022-12-07T07:37:43;17.27;;;8.65;;
26756;SDS011;23848;49.798;10.228;2022-12-07T07:40:13;14.90;;;9.02;;
26756;SDS011;23848;49.798;10.228;2022-12-07T07:42:41;14.65;;;9.10;;
26756;SDS011;23848;49.798;10.228;2022-12-07T07:45:10;15.57;;;8.93;;
26756;SDS011;23848;49.798;10.228;2022-12-07T07:47:39;17.75;;;9.77;;
26756;SDS011;23848;49.798;10.228;2022-12-07T07:50:08;17.75;;;9.90;;
26756;SDS011;23848;49.798;10.228;2022-12-07T07:52:37;14.70;;;8.20;;
26756;SDS011;23848;49.798;10.228;2022-12-07T07:55:06;16.85;;;9.30;;
26756;SDS011;23848;49.798;10.228;2022-12-07T07:57:36;18.00;;;9.20;;
26756;SDS011;23848;49.798;10.228;2022-12-07T08:00:06;15.52;;;8.90;;
26756;SDS011;23848;49.798;10.228;2022-12-07T08:02:34;16.55;;;9.82;;
26756;SDS011;23848;49.798;10.228;2022-12-07T08:05:03;16.70;;;9.57;;
26756;SDS011;23848;49.798;10.228;2022-12-07T08:07:32;16.42;;;8.57;;
26756;SDS011;23848;49.798;10.228;2022-12-07T08:10:01;15.95;;;9.02;;
26756;SDS011;23848;49.798;10.228;2022-12-07T08:12:30;16.88;;;9.05;;
26756;SDS011;23848;49.798;10.228;2022-12-07T08:15:01;16.63;;;9.68;;
26756;SDS011;23848;49.798;10.228;2022-12-07T08:17:29;16.10;;;9.13;;
26756;SDS011;23848;49.798;10.228;2022-12-07T08:19:58;16.30;;;9.07;;
26756;SDS011;23848;49.798;10.228;2022-12-07T08:22:27;14.40;;;8.38;;
26756;SDS011;23848;49.798;10.228;2022-12-07T08:24:56;16.25;;;9.63;;
26756;SDS011;23848;49.798;10.228;2022-12-07T08:27:25;15.45;;;9.43;;
26756;SDS011;23848;49.798;10.228;2022-12-07T08:29:54;16.17;;;8.70;;
26756;SDS011;23848;49.798;10.228;2022-12-07T08:32:24;15.27;;;9.43;;
26756;SDS011;23848;49.798;10.228;2022-12-07T08:34:52;16.23;;;9.57;;
26756;SDS011;23848;49.798;10.228;2022-12-07T08:37:20;16.02;;;9.20;;
26756;SDS011;23848;49.798;10.228;2022-12-07T08:39:49;16.85;;;9.32;;
26756;SDS011;23848;49.798;10.228;2022-12-07T08:42:17;17.27;;;9.35;;
26756;SDS011;23848;49.798;10.228;2022-12-07T08:44:48;15.40;;;8.95;;
26756;SDS011;23848;49.798;10.228;2022-12-07T08:47:17;16.70;;;9.68;;
26756;SDS011;23848;49.798;10.228;2022-12-07T08:49:47;16.95;;;9.73;;
26756;SDS011;23848;49.798;10.228;2022-12-07T08:52:18;17.52;;;10.40;;
26756;SDS011;23848;49.798;10.228;2022-12-07T08:54:47;15.55;;;9.55;;
26756;SDS011;23848;49.798;10.228;2022-12-07T08:57:16;14.98;;;9.38;;
26756;SDS011;23848;49.798;10.228;2022-12-07T08:59:44;17.02;;;9.98;;
26756;SDS011;23848;49.798;10.228;2022-12-07T09:02:13;16.77;;;9.70;;
26756;SDS011;23848;49.798;10.228;2022-12-07T09:04:41;14.60;;;9.05;;
26756;SDS011;23848;49.798;10.228;2022-12-07T09:07:11;14.50;;;9.02;;
26756;SDS011;23848;49.798;10.228;2022-12-07T09:09:41;14.68;;;8.85;;
26756;SDS011;23848;49.798;10.228;2022-12-07T09:12:10;14.50;;;8.82;;
26756;SDS011;23848;49.798;10.228;2022-12-07T09:14:38;13.75;;;8.82;;
26756;SDS011;23848;49.798;10.228;2022-12-07T09:17:07;17.23;;;9.27;;
26756;SDS011;23848;49.798;10.228;2022-12-07T09:19:36;15.93;;;9.82;;
26756;SDS011;23848;49.798;10.228;2022-12-07T09:22:08;16.20;;;9.60;;
26756;SDS011;23848;49.798;10.228;2022-12-07T09:24:41;14.63;;;8.90;;
26756;SDS011;23848;49.798;10.228;2022-12-07T09:27:10;15.88;;;9.93;;
26756;SDS011;23848;49.798;10.228;2022-12-07T09:29:39;15.98;;;9.55;;
26756;SDS011;23848;49.798;10.228;2022-12-07T09:32:07;14.98;;;9.18;;
26756;SDS011;23848;49.798;10.228;2022-12-07T09:34:37;15.60;;;9.73;;
26756;SDS011;23848;49.798;10.228;2022-12-07T09:37:06;15.75;;;10.10;;
26756;SDS011;23848;49.798;10.228;2022-12-07T09:39:34;16.80;;;9.20;;
26756;SDS011;23848;49.798;10.228;2022-12-07T09:42:27;19.83;;;9.85;;
26756;SDS011;23848;49.798;10.228;2022-12-07T09:44:57;14.40;;;9.07;;
26756;SDS011;23848;49.798;10.228;2022-12-07T09:47:28;13.02;;;8.80;;
26756;SDS011;23848;49.798;10.228;2022-12-07T09:50:03;17.33;;;11.30;;
26756;SDS011;23848;49.798;10.228;2022-12-07T09:52:32;17.05;;;11.02;;
26756;SDS011;23848;49.798;10.228;2022-12-07T09:55:08;18.45;;;11.30;;
26756;SDS011;23848;49.798;10.228;2022-12-07T09:57:39;18.00;;;10.10;;
26756;SDS011;23848;49.798;10.228;2022-12-07T10:00:10;14.75;;;9.80;;
26756;SDS011;23848;49.798;10.228;2022-12-07T10:02:40;17.25;;;10.80;;
26756;SDS011;23848;49.798;10.228;2022-12-07T10:05:13;16.50;;;11.05;;
26756;SDS011;23848;49.798;10.228;2022-12-07T10:07:49;15.63;;;8.77;;
26756;SDS011;23848;49.798;10.228;2022-12-07T10:10:19;13.95;;;9.23;;
26756;SDS011;23848;49.798;10.228;2022-12-07T10:12:54;14.15;;;10.07;;
26756;SDS011;23848;49.798;10.228;2022-12-07T10:15:23;11.98;;;8.82;;
26756;SDS011;23848;49.798;10.228;2022-12-07T10:17:52;12.88;;;8.60;;
26756;SDS011;23848;49.798;10.228;2022-12-07T10:20:22;14.45;;;8.77;;
26756;SDS011;23848;49.798;10.228;2022-12-07T10:22:56;12.65;;;8.50;;
26756;SDS011;23848;49.798;10.228;2022-12-07T10:25:26;17.85;;;11.80;;
26756;SDS011;23848;49.798;10.228;2022-12-07T10:28:01;14.48;;;9.68;;
26756;SDS011;23848;49.798;10.228;2022-12-07T10:30:30;13.50;;;8.07;;
26756;SDS011;23848;49.798;10.228;2022-12-07T10:33:02;12.00;;;8.50;;
26756;SDS011;23848;49.798;10.228;2022-12-07T10:35:30;16.00;;;8.95;;
26756;SDS011;23848;49.798;10.228;2022-12-07T10:37:59;12.95;;;8.43;;
26756;SDS011;23848;49.798;10.228;2022-12-07T10:40:31;16.20;;;10.23;;
26756;SDS011;23848;49.798;10.228;2022-12-07T10:43:03;15.83;;;10.03;;
26756;SDS011;23848;49.798;10.228;2022-12-07T10:45:32;13.57;;;8.50;;
26756;SDS011;23848;49.798;10.228;2022-12-07T10:48:18;15.57;;;8.15;;
26756;SDS011;23848;49.798;10.228;2022-12-07T10:50:52;12.68;;;7.68;;
26756;SDS011;23848;49.798;10.228;2022-12-07T11:01:51;11.60;;;7.93;;
26756;SDS011;23848;49.798;10.228;2022-12-07T11:04:23;12.07;;;7.75;;
26756;SDS011;23848;49.798;10.228;2022-12-07T11:06:54;10.50;;;6.90;;
26756;SDS011;23848;49.798;10.228;2022-12-07T11:12:20;14.15;;;8.98;;
26756;SDS011;23848;49.798;10.228;2022-12-07T11:14:54;13.50;;;8.60;;
26756;SDS011;23848;49.798;10.228;2022-12-07T11:17:26;10.93;;;7.30;;
26756;SDS011;23848;49.798;10.228;2022-12-07T11:20:01;10.90;;;7.20;;
26756;SDS011;23848;49.798;10.228;2022-12-07T11:22:54;9.93;;;7.00;;
26756;SDS011;23848;49.798;10.228;2022-12-07T11:25:27;11.15;;;7.53;;
26756;SDS011;23848;49.798;10.228;2022-12-07T11:28:02;11.10;;;7.60;;
26756;SDS011;23848;49.798;10.228;2022-12-07T11:30:35;11.75;;;8.45;;
26756;SDS011;23848;49.798;10.228;2022-12-07T11:33:17;13.60;;;8.57;;
26756;SDS011;23848;49.798;10.228;2022-12-07T11:35:54;14.88;;;8.38;;
26756;SDS011;23848;49.798;10.228;2022-12-07T11:38:28;12.13;;;8.38;;
26756;SDS011;23848;49.798;10.228;2022-12-07T11:41:00;13.45;;;8.18;;
26756;SDS011;23848;49.798;10.228;2022-12-07T11:43:49;10.10;;;6.70;;
26756;SDS011;23848;49.798;10.228;2022-12-07T11:46:18;11.65;;;6.70;;
26756;SDS011;23848;49.798;10.228;2022-12-07T11:48:57;9.75;;;7.07;;
26756;SDS011;23848;49.798;10.228;2022-12-07T11:51:26;11.07;;;6.40;;
26756;SDS011;23848;49.798;10.228;2022-12-07T11:53:59;11.90;;;6.25;;
26756;SDS011;23848;49.798;10.228;2022-12-07T11:56:31;9.35;;;6.45;;
26756;SDS011;23848;49.798;10.228;2022-12-07T11:59:06;9.90;;;6.50;;
26756;SDS011;23848;49.798;10.228;2022-12-07T12:01:45;9.45;;;6.35;;
26756;SDS011;23848;49.798;10.228;2022-12-07T12:04:22;9.25;;;6.22;;
26756;SDS011;23848;49.798;10.228;2022-12-07T12:06:52;9.65;;;6.47;;
26756;SDS011;23848;49.798;10.228;2022-12-07T12:09:25;13.30;;;7.45;;
26756;SDS011;23848;49.798;10.228;2022-12-07T12:12:17;11.73;;;6.13;;
26756;SDS011;23848;49.798;10.228;2022-12-07T12:15:15;7.82;;;5.75;;
26756;SDS011;23848;49.798;10.228;2022-12-07T12:17:59;9.43;;;6.40;;
26756;SDS011;23848;49.798;10.228;2022-12-07T12:20:35;9.40;;;5.55;;
26756;SDS011;23848;49.798;10.228;2022-12-07T12:23:07;8.48;;;5.47;;
26756;SDS011;23848;49.798;10.228;2022-12-07T12:25:39;7.53;;;5.35;;
26756;SDS011;23848;49.798;10.228;2022-12-07T12:28:18;10.88;;;5.53;;
26756;SDS011;23848;49.798;10.228;2022-12-07T12:33:35;11.15;;;6.43;;
26756;SDS011;23848;49.798;10.228;2022-12-07T12:36:20;8.40;;;5.75;;
26756;SDS011;23848;49.798;10.228;2022-12-07T12:39:12;9.93;;;5.55;;
26756;SDS011;23848;49.798;10.228;2022-12-07T12:41:59;8.07;;;5.57;;
26756;SDS011;23848;49.798;10.228;2022-12-07T12:44:40;9.80;;;5.25;;
26756;SDS011;23848;49.798;10.228;2022-12-07T12:50:11;7.47;;;4.90;;
26756;SDS011;23848;49.798;10.228;2022-12-07T12:52:52;7.72;;;5.47;;
26756;SDS011;23848;49.798;10.228;2022-12-07T12:55:31;9.57;;;5.95;;
26756;SDS011;23848;49.798;10.228;2022-12-07T12:58:22;11.75;;;5.40;;
26756;SDS011;23848;49.798;10.228;2022-12-07T13:03:29;10.32;;;6.13;;
26756;SDS011;23848;49.798;10.228;2022-12-07T13:06:17;7.43;;;5.30;;
26756;SDS011;23848;49.798;10.228;2022-12-07T13:08:52;10.35;;;5.82;;
26756;SDS011;23848;49.798;10.228;2022-12-07T13:11:57;8.40;;;5.13;;
26756;SDS011;23848;49.798;10.228;2022-12-07T13:14:51;8.50;;;5.63;;
26756;SDS011;23848;49.798;10.228;2022-12-07T13:23:05;7.57;;;5.15;;
26756;SDS011;23848;49.798;10.228;2022-12-07T13:25:48;7.03;;;4.93;;
26756;SDS011;23848;49.798;10.228;2022-12-07T13:28:25;10.40;;;5.88;;
26756;SDS011;23848;49.798;10.228;2022-12-07T13:33:43;6.75;;;3.60;;
26756;SDS011;23848;49.798;10.228;2022-12-07T13:36:17;4.45;;;2.58;;
26756;SDS011;23848;49.798;10.228;2022-12-07T13:38:51;5.18;;;2.90;;
26756;SDS011;23848;49.798;10.228;2022-12-07T13:41:22;4.38;;;2.50;;
26756;SDS011;23848;49.798;10.228;2022-12-07T13:43:58;4.97;;;3.13;;
26756;SDS011;23848;49.798;10.228;2022-12-07T13:46:32;6.43;;;3.22;;
26756;SDS011;23848;49.798;10.228;2022-12-07T13:49:02;5.55;;;2.72;;
26756;SDS011;23848;49.798;10.228;2022-12-07T13:51:33;5.63;;;3.28;;
26756;SDS011;23848;49.798;10.228;2022-12-07T13:54:08;5.80;;;3.38;;
26756;SDS011;23848;49.798;10.228;2022-12-07T13:56:39;5.45;;;3.53;;
26756;SDS011;23848;49.798;10.228;2022-12-07T13:59:13;6.18;;;4.15;;
26756;SDS011;23848;49.798;10.228;2022-12-07T14:01:44;9.75;;;5.45;;
26756;SDS011;23848;49.798;10.228;2022-12-07T14:04:18;9.75;;;5.22;;
26756;SDS011;23848;49.798;10.228;2022-12-07T14:06:47;6.53;;;4.72;;
26756;SDS011;23848;49.798;10.228;2022-12-07T14:09:17;6.93;;;5.03;;
26756;SDS011;23848;49.798;10.228;2022-12-07T14:11:48;7.07;;;4.53;;
26756;SDS011;23848;49.798;10.228;2022-12-07T14:14:18;8.25;;;4.93;;
26756;SDS011;23848;49.798;10.228;2022-12-07T14:16:55;6.95;;;4.53;;
26756;SDS011;23848;49.798;10.228;2022-12-07T14:22:19;7.93;;;4.72;;
26756;SDS011;23848;49.798;10.228;2022-12-07T14:25:14;7.40;;;4.78;;
26756;SDS011;23848;49.798;10.228;2022-12-07T14:27:50;7.15;;;4.45;;
26756;SDS011;23848;49.798;10.228;2022-12-07T14:30:19;9.25;;;4.47;;
26756;SDS011;23848;49.798;10.228;2022-12-07T14:32:52;11.07;;;5.38;;
26756;SDS011;23848;49.798;10.228;2022-12-07T14:35:28;7.43;;;4.85;;
26756;SDS011;23848;49.798;10.228;2022-12-07T14:37:57;7.35;;;4.72;;
26756;SDS011;23848;49.798;10.228;2022-12-07T14:40:35;7.32;;;4.43;;
26756;SDS011;23848;49.798;10.228;2022-12-07T14:43:10;13.27;;;7.13;;
26756;SDS011;23848;49.798;10.228;2022-12-07T14:45:40;20.58;;;9.57;;
26756;SDS011;23848;49.798;10.228;2022-12-07T14:48:10;14.48;;;9.02;;
26756;SDS011;23848;49.798;10.228;2022-12-07T14:51:04;17.30;;;10.05;;
26756;SDS011;23848;49.798;10.228;2022-12-07T14:53:55;22.05;;;13.15;;
26756;SDS011;23848;49.798;10.228;2022-12-07T14:56:27;15.32;;;8.43;;
26756;SDS011;23848;49.798;10.228;2022-12-07T14:58:58;15.00;;;8.05;;
26756;SDS011;23848;49.798;10.228;2022-12-07T15:01:32;17.95;;;8.70;;
26756;SDS011;23848;49.798;10.228;2022-12-07T15:04:07;10.07;;;6.60;;
26756;SDS011;23848;49.798;10.228;2022-12-07T15:06:40;8.75;;;5.28;;
26756;SDS011;23848;49.798;10.228;2022-12-07T15:09:12;8.80;;;5.07;;
26756;SDS011;23848;49.798;10.228;2022-12-07T15:11:40;5.28;;;3.10;;
26756;SDS011;23848;49.798;10.228;2022-12-07T15:14:11;7.47;;;4.38;;
26756;SDS011;23848;49.798;10.228;2022-12-07T15:16:40;6.43;;;4.28;;
26756;SDS011;23848;49.798;10.228;2022-12-07T15:19:29;7.88;;;6.63;;
26756;SDS011;23848;49.798;10.228;2022-12-07T15:22:05;10.65;;;9.07;;
26756;SDS011;23848;49.798;10.228;2022-12-07T15:24:38;8.07;;;7.07;;